sensor_id;sensor_type;location;lat;lon;timestamp;P1;durP1;ratioP1;P2;durP2;ratioP2
34896;SDS011;43407;51.828;-2.298;2022-12-18T00:02:04;12.27;;;7.18;;
34896;SDS011;43407;51.828;-2.298;2022-12-18T00:04:30;13.32;;;7.68;;
34896;SDS011;43407;51.828;-2.298;2022-12-18T00:06:55;9.05;;;6.90;;
34896;SDS011;43407;51.828;-2.298;2022-12-18T00:09:21;9.43;;;6.93;;
34896;SDS011;43407;51.828;-2.298;2022-12-18T00:11:48;10.77;;;7.72;;
34896;SDS011;43407;51.828;-2.298;2022-12-18T00:14:13;11.77;;;7.50;;
34896;SDS011;43407;51.828;-2.298;2022-12-18T00:16:39;7.82;;;6.53;;
34896;SDS011;43407;51.828;-2.298;2022-12-18T00:19:05;12.30;;;7.35;;
34896;SDS011;43407;51.828;-2.298;2022-12-18T00:21:32;9.80;;;6.93;;
34896;SDS011;43407;51.828;-2.298;2022-12-18T00:23:58;9.93;;;6.85;;
34896;SDS011;43407;51.828;-2.298;2022-12-18T00:26:33;7.75;;;5.88;;
34896;SDS011;43407;51.828;-2.298;2022-12-18T00:29:17;9.85;;;6.75;;
34896;SDS011;43407;51.828;-2.298;2022-12-18T00:31:42;6.57;;;5.43;;
34896;SDS011;43407;51.828;-2.298;2022-12-18T00:34:09;7.15;;;5.45;;
34896;SDS011;43407;51.828;-2.298;2022-12-18T00:36:36;7.05;;;5.32;;
34896;SDS011;43407;51.828;-2.298;2022-12-18T00:39:03;6.10;;;4.72;;
34896;SDS011;43407;51.828;-2.298;2022-12-18T00:41:29;7.13;;;5.30;;
34896;SDS011;43407;51.828;-2.298;2022-12-18T00:44:14;6.60;;;5.32;;
34896;SDS011;43407;51.828;-2.298;2022-12-18T00:46:41;5.30;;;4.80;;
34896;SDS011;43407;51.828;-2.298;2022-12-18T00:49:07;7.13;;;4.57;;
34896;SDS011;43407;51.828;-2.298;2022-12-18T00:51:32;5.47;;;4.53;;
34896;SDS011;43407;51.828;-2.298;2022-12-18T00:53:58;5.65;;;4.68;;
34896;SDS011;43407;51.828;-2.298;2022-12-18T00:56:24;7.68;;;5.03;;
34896;SDS011;43407;51.828;-2.298;2022-12-18T00:58:49;7.15;;;5.07;;
34896;SDS011;43407;51.828;-2.298;2022-12-18T01:01:15;4.22;;;3.72;;
34896;SDS011;43407;51.828;-2.298;2022-12-18T01:03:41;4.88;;;4.00;;
34896;SDS011;43407;51.828;-2.298;2022-12-18T01:06:08;5.05;;;4.13;;
34896;SDS011;43407;51.828;-2.298;2022-12-18T01:08:34;6.65;;;4.97;;
34896;SDS011;43407;51.828;-2.298;2022-12-18T01:11:00;6.65;;;5.00;;
34896;SDS011;43407;51.828;-2.298;2022-12-18T01:13:31;6.75;;;4.75;;
34896;SDS011;43407;51.828;-2.298;2022-12-18T01:15:57;7.35;;;4.95;;
34896;SDS011;43407;51.828;-2.298;2022-12-18T01:18:22;6.22;;;5.10;;
34896;SDS011;43407;51.828;-2.298;2022-12-18T01:20:48;6.00;;;4.45;;
34896;SDS011;43407;51.828;-2.298;2022-12-18T01:23:13;7.70;;;5.00;;
34896;SDS011;43407;51.828;-2.298;2022-12-18T01:25:39;5.38;;;4.47;;
34896;SDS011;43407;51.828;-2.298;2022-12-18T01:28:04;7.03;;;5.28;;
34896;SDS011;43407;51.828;-2.298;2022-12-18T01:30:30;5.75;;;4.45;;
34896;SDS011;43407;51.828;-2.298;2022-12-18T01:32:55;5.00;;;4.50;;
34896;SDS011;43407;51.828;-2.298;2022-12-18T01:35:21;5.22;;;4.40;;
34896;SDS011;43407;51.828;-2.298;2022-12-18T01:37:46;6.55;;;4.57;;
34896;SDS011;43407;51.828;-2.298;2022-12-18T01:40:12;6.07;;;5.10;;
34896;SDS011;43407;51.828;-2.298;2022-12-18T01:42:37;5.15;;;4.60;;
34896;SDS011;43407;51.828;-2.298;2022-12-18T01:47:56;6.30;;;4.60;;
34896;SDS011;43407;51.828;-2.298;2022-12-18T01:50:33;5.00;;;4.00;;
34896;SDS011;43407;51.828;-2.298;2022-12-18T01:53:03;6.47;;;4.70;;
34896;SDS011;43407;51.828;-2.298;2022-12-18T01:55:48;4.45;;;3.90;;
34896;SDS011;43407;51.828;-2.298;2022-12-18T01:58:18;5.78;;;4.50;;
34896;SDS011;43407;51.828;-2.298;2022-12-18T02:00:45;5.45;;;4.30;;
34896;SDS011;43407;51.828;-2.298;2022-12-18T02:03:10;6.85;;;4.90;;
34896;SDS011;43407;51.828;-2.298;2022-12-18T02:08:24;5.65;;;4.35;;
34896;SDS011;43407;51.828;-2.298;2022-12-18T02:18:56;4.60;;;4.07;;
34896;SDS011;43407;51.828;-2.298;2022-12-18T02:27:04;6.40;;;4.78;;
34896;SDS011;43407;51.828;-2.298;2022-12-18T02:29:33;7.65;;;5.50;;
34896;SDS011;43407;51.828;-2.298;2022-12-18T02:32:03;7.35;;;5.25;;
34896;SDS011;43407;51.828;-2.298;2022-12-18T02:34:33;6.78;;;4.90;;
34896;SDS011;43407;51.828;-2.298;2022-12-18T02:37:03;9.60;;;6.45;;
34896;SDS011;43407;51.828;-2.298;2022-12-18T02:39:32;10.50;;;6.15;;
34896;SDS011;43407;51.828;-2.298;2022-12-18T02:41:58;9.68;;;6.05;;
34896;SDS011;43407;51.828;-2.298;2022-12-18T02:44:26;7.25;;;5.60;;
34896;SDS011;43407;51.828;-2.298;2022-12-18T02:46:52;7.40;;;5.72;;
34896;SDS011;43407;51.828;-2.298;2022-12-18T02:51:51;6.47;;;4.88;;
34896;SDS011;43407;51.828;-2.298;2022-12-18T02:57:05;7.23;;;5.70;;
34896;SDS011;43407;51.828;-2.298;2022-12-18T03:00:22;6.82;;;4.85;;
34896;SDS011;43407;51.828;-2.298;2022-12-18T03:05:13;7.90;;;5.60;;
34896;SDS011;43407;51.828;-2.298;2022-12-18T03:07:42;6.82;;;5.32;;
34896;SDS011;43407;51.828;-2.298;2022-12-18T03:10:14;6.30;;;5.28;;
34896;SDS011;43407;51.828;-2.298;2022-12-18T03:12:51;6.93;;;5.53;;
34896;SDS011;43407;51.828;-2.298;2022-12-18T03:15:27;7.63;;;5.85;;
34896;SDS011;43407;51.828;-2.298;2022-12-18T03:18:02;8.48;;;5.40;;
34896;SDS011;43407;51.828;-2.298;2022-12-18T03:20:40;7.78;;;6.32;;
34896;SDS011;43407;51.828;-2.298;2022-12-18T03:23:09;8.35;;;5.80;;
34896;SDS011;43407;51.828;-2.298;2022-12-18T03:25:39;7.47;;;5.28;;
34896;SDS011;43407;51.828;-2.298;2022-12-18T03:28:06;6.70;;;4.93;;
34896;SDS011;43407;51.828;-2.298;2022-12-18T03:30:35;7.68;;;5.70;;
34896;SDS011;43407;51.828;-2.298;2022-12-18T03:33:05;7.38;;;5.25;;
34896;SDS011;43407;51.828;-2.298;2022-12-18T03:35:33;9.70;;;6.60;;
34896;SDS011;43407;51.828;-2.298;2022-12-18T03:38:02;7.43;;;5.63;;
34896;SDS011;43407;51.828;-2.298;2022-12-18T03:40:35;9.30;;;7.20;;
34896;SDS011;43407;51.828;-2.298;2022-12-18T03:43:20;9.68;;;6.75;;
34896;SDS011;43407;51.828;-2.298;2022-12-18T03:46:20;9.23;;;6.55;;
34896;SDS011;43407;51.828;-2.298;2022-12-18T03:48:52;7.43;;;5.45;;
34896;SDS011;43407;51.828;-2.298;2022-12-18T03:51:42;6.97;;;5.53;;
34896;SDS011;43407;51.828;-2.298;2022-12-18T03:54:13;7.45;;;6.20;;
34896;SDS011;43407;51.828;-2.298;2022-12-18T03:56:41;8.82;;;6.10;;
34896;SDS011;43407;51.828;-2.298;2022-12-18T03:59:09;7.35;;;5.57;;
34896;SDS011;43407;51.828;-2.298;2022-12-18T04:01:41;6.93;;;4.88;;
34896;SDS011;43407;51.828;-2.298;2022-12-18T04:04:11;6.10;;;4.53;;
34896;SDS011;43407;51.828;-2.298;2022-12-18T04:06:38;9.13;;;6.25;;
34896;SDS011;43407;51.828;-2.298;2022-12-18T04:09:03;15.75;;;9.82;;
34896;SDS011;43407;51.828;-2.298;2022-12-18T04:11:29;20.17;;;13.23;;
34896;SDS011;43407;51.828;-2.298;2022-12-18T04:13:55;19.05;;;12.50;;
34896;SDS011;43407;51.828;-2.298;2022-12-18T04:16:22;20.00;;;12.63;;
34896;SDS011;43407;51.828;-2.298;2022-12-18T04:18:48;19.40;;;13.05;;
34896;SDS011;43407;51.828;-2.298;2022-12-18T04:21:14;18.98;;;13.18;;
34896;SDS011;43407;51.828;-2.298;2022-12-18T04:23:39;24.88;;;14.90;;
34896;SDS011;43407;51.828;-2.298;2022-12-18T04:26:05;21.85;;;13.93;;
34896;SDS011;43407;51.828;-2.298;2022-12-18T04:28:30;19.25;;;12.75;;
34896;SDS011;43407;51.828;-2.298;2022-12-18T04:30:55;21.27;;;12.70;;
34896;SDS011;43407;51.828;-2.298;2022-12-18T04:33:21;21.98;;;13.80;;
34896;SDS011;43407;51.828;-2.298;2022-12-18T04:35:47;21.77;;;13.93;;
34896;SDS011;43407;51.828;-2.298;2022-12-18T04:38:12;24.23;;;14.40;;
34896;SDS011;43407;51.828;-2.298;2022-12-18T04:40:38;26.48;;;16.58;;
34896;SDS011;43407;51.828;-2.298;2022-12-18T04:43:03;24.65;;;15.80;;
34896;SDS011;43407;51.828;-2.298;2022-12-18T04:45:32;23.33;;;13.93;;
34896;SDS011;43407;51.828;-2.298;2022-12-18T04:47:58;24.42;;;14.90;;
34896;SDS011;43407;51.828;-2.298;2022-12-18T04:50:24;23.05;;;15.18;;
34896;SDS011;43407;51.828;-2.298;2022-12-18T04:52:50;22.55;;;14.98;;
34896;SDS011;43407;51.828;-2.298;2022-12-18T04:55:15;20.45;;;13.82;;
34896;SDS011;43407;51.828;-2.298;2022-12-18T04:57:41;22.25;;;14.35;;
34896;SDS011;43407;51.828;-2.298;2022-12-18T05:00:06;22.00;;;14.65;;
34896;SDS011;43407;51.828;-2.298;2022-12-18T05:02:32;22.30;;;14.65;;
34896;SDS011;43407;51.828;-2.298;2022-12-18T05:04:58;22.02;;;14.55;;
34896;SDS011;43407;51.828;-2.298;2022-12-18T05:07:23;20.55;;;12.90;;
34896;SDS011;43407;51.828;-2.298;2022-12-18T05:09:49;21.55;;;13.23;;
34896;SDS011;43407;51.828;-2.298;2022-12-18T05:12:14;18.65;;;12.77;;
34896;SDS011;43407;51.828;-2.298;2022-12-18T05:14:40;20.60;;;12.75;;
34896;SDS011;43407;51.828;-2.298;2022-12-18T05:17:05;17.35;;;12.05;;
34896;SDS011;43407;51.828;-2.298;2022-12-18T05:19:31;16.33;;;10.98;;
34896;SDS011;43407;51.828;-2.298;2022-12-18T05:21:56;16.10;;;10.68;;
34896;SDS011;43407;51.828;-2.298;2022-12-18T05:24:22;12.50;;;9.43;;
34896;SDS011;43407;51.828;-2.298;2022-12-18T05:26:48;13.35;;;9.52;;
34896;SDS011;43407;51.828;-2.298;2022-12-18T05:29:13;12.48;;;9.77;;
34896;SDS011;43407;51.828;-2.298;2022-12-18T05:31:38;13.25;;;8.75;;
34896;SDS011;43407;51.828;-2.298;2022-12-18T05:34:04;13.07;;;8.95;;
34896;SDS011;43407;51.828;-2.298;2022-12-18T05:36:30;14.57;;;9.30;;
34896;SDS011;43407;51.828;-2.298;2022-12-18T05:38:55;14.95;;;9.52;;
34896;SDS011;43407;51.828;-2.298;2022-12-18T05:41:21;15.45;;;9.75;;
34896;SDS011;43407;51.828;-2.298;2022-12-18T05:43:47;22.35;;;14.10;;
34896;SDS011;43407;51.828;-2.298;2022-12-18T05:46:13;20.95;;;13.10;;
34896;SDS011;43407;51.828;-2.298;2022-12-18T05:48:41;22.23;;;13.15;;
34896;SDS011;43407;51.828;-2.298;2022-12-18T05:51:09;20.05;;;13.65;;
34896;SDS011;43407;51.828;-2.298;2022-12-18T05:53:36;18.05;;;11.43;;
34896;SDS011;43407;51.828;-2.298;2022-12-18T05:56:03;19.27;;;11.95;;
34896;SDS011;43407;51.828;-2.298;2022-12-18T05:58:30;21.75;;;13.18;;
34896;SDS011;43407;51.828;-2.298;2022-12-18T06:00:56;22.77;;;12.48;;
34896;SDS011;43407;51.828;-2.298;2022-12-18T06:03:22;18.45;;;12.15;;
34896;SDS011;43407;51.828;-2.298;2022-12-18T06:05:47;17.27;;;11.77;;
34896;SDS011;43407;51.828;-2.298;2022-12-18T06:08:13;17.33;;;11.57;;
34896;SDS011;43407;51.828;-2.298;2022-12-18T06:10:39;18.17;;;11.30;;
34896;SDS011;43407;51.828;-2.298;2022-12-18T06:13:05;19.80;;;11.73;;
34896;SDS011;43407;51.828;-2.298;2022-12-18T06:15:31;16.17;;;10.73;;
34896;SDS011;43407;51.828;-2.298;2022-12-18T06:17:57;15.38;;;10.65;;
34896;SDS011;43407;51.828;-2.298;2022-12-18T06:20:22;17.55;;;11.07;;
34896;SDS011;43407;51.828;-2.298;2022-12-18T06:22:48;21.45;;;11.85;;
34896;SDS011;43407;51.828;-2.298;2022-12-18T06:25:13;15.48;;;10.15;;
34896;SDS011;43407;51.828;-2.298;2022-12-18T06:27:39;16.40;;;10.70;;
34896;SDS011;43407;51.828;-2.298;2022-12-18T06:30:05;16.85;;;9.77;;
34896;SDS011;43407;51.828;-2.298;2022-12-18T06:32:31;16.05;;;10.25;;
34896;SDS011;43407;51.828;-2.298;2022-12-18T06:34:56;14.35;;;9.27;;
34896;SDS011;43407;51.828;-2.298;2022-12-18T06:37:22;22.70;;;13.38;;
34896;SDS011;43407;51.828;-2.298;2022-12-18T06:39:51;17.90;;;12.02;;
34896;SDS011;43407;51.828;-2.298;2022-12-18T06:42:17;20.08;;;11.85;;
34896;SDS011;43407;51.828;-2.298;2022-12-18T06:44:43;17.88;;;12.60;;
34896;SDS011;43407;51.828;-2.298;2022-12-18T06:47:08;19.15;;;11.82;;
34896;SDS011;43407;51.828;-2.298;2022-12-18T06:49:34;19.48;;;12.35;;
34896;SDS011;43407;51.828;-2.298;2022-12-18T06:51:59;21.35;;;13.15;;
34896;SDS011;43407;51.828;-2.298;2022-12-18T06:54:25;21.13;;;13.18;;
34896;SDS011;43407;51.828;-2.298;2022-12-18T06:56:50;20.65;;;11.93;;
34896;SDS011;43407;51.828;-2.298;2022-12-18T06:59:16;23.27;;;13.63;;
34896;SDS011;43407;51.828;-2.298;2022-12-18T07:01:41;18.27;;;12.57;;
34896;SDS011;43407;51.828;-2.298;2022-12-18T07:04:07;18.95;;;11.55;;
34896;SDS011;43407;51.828;-2.298;2022-12-18T07:06:32;20.92;;;12.65;;
34896;SDS011;43407;51.828;-2.298;2022-12-18T07:08:58;19.48;;;11.88;;
34896;SDS011;43407;51.828;-2.298;2022-12-18T07:11:23;16.45;;;11.38;;
34896;SDS011;43407;51.828;-2.298;2022-12-18T07:13:49;18.80;;;12.18;;
34896;SDS011;43407;51.828;-2.298;2022-12-18T07:16:16;21.38;;;13.40;;
34896;SDS011;43407;51.828;-2.298;2022-12-18T07:18:42;18.70;;;11.73;;
34896;SDS011;43407;51.828;-2.298;2022-12-18T07:21:09;15.32;;;10.32;;
34896;SDS011;43407;51.828;-2.298;2022-12-18T07:23:36;20.33;;;12.95;;
34896;SDS011;43407;51.828;-2.298;2022-12-18T07:26:06;19.73;;;12.50;;
34896;SDS011;43407;51.828;-2.298;2022-12-18T07:28:33;21.70;;;13.15;;
34896;SDS011;43407;51.828;-2.298;2022-12-18T07:31:12;19.83;;;11.73;;
34896;SDS011;43407;51.828;-2.298;2022-12-18T07:33:39;18.55;;;11.77;;
34896;SDS011;43407;51.828;-2.298;2022-12-18T07:36:06;17.92;;;11.82;;
34896;SDS011;43407;51.828;-2.298;2022-12-18T07:38:33;20.45;;;12.52;;
34896;SDS011;43407;51.828;-2.298;2022-12-18T07:43:32;18.92;;;12.18;;
34896;SDS011;43407;51.828;-2.298;2022-12-18T07:45:58;14.55;;;9.98;;
34896;SDS011;43407;51.828;-2.298;2022-12-18T07:48:24;14.50;;;9.68;;
34896;SDS011;43407;51.828;-2.298;2022-12-18T07:50:50;13.65;;;9.50;;
34896;SDS011;43407;51.828;-2.298;2022-12-18T07:53:15;14.32;;;10.45;;
34896;SDS011;43407;51.828;-2.298;2022-12-18T07:55:41;16.48;;;10.20;;
34896;SDS011;43407;51.828;-2.298;2022-12-18T07:58:07;14.52;;;9.27;;
34896;SDS011;43407;51.828;-2.298;2022-12-18T08:00:33;12.48;;;8.23;;
34896;SDS011;43407;51.828;-2.298;2022-12-18T08:02:58;12.52;;;8.80;;
34896;SDS011;43407;51.828;-2.298;2022-12-18T08:05:24;11.48;;;7.75;;
34896;SDS011;43407;51.828;-2.298;2022-12-18T08:07:49;17.25;;;10.85;;
34896;SDS011;43407;51.828;-2.298;2022-12-18T08:10:15;14.60;;;9.70;;
34896;SDS011;43407;51.828;-2.298;2022-12-18T08:12:41;13.90;;;9.65;;
34896;SDS011;43407;51.828;-2.298;2022-12-18T08:15:06;13.32;;;8.82;;
34896;SDS011;43407;51.828;-2.298;2022-12-18T08:17:32;12.20;;;8.80;;
34896;SDS011;43407;51.828;-2.298;2022-12-18T08:19:58;12.18;;;8.73;;
34896;SDS011;43407;51.828;-2.298;2022-12-18T08:22:24;15.18;;;9.48;;
34896;SDS011;43407;51.828;-2.298;2022-12-18T08:24:49;17.75;;;11.75;;
34896;SDS011;43407;51.828;-2.298;2022-12-18T08:27:15;19.70;;;11.75;;
34896;SDS011;43407;51.828;-2.298;2022-12-18T08:29:40;21.92;;;12.88;;
34896;SDS011;43407;51.828;-2.298;2022-12-18T08:32:06;20.60;;;12.77;;
34896;SDS011;43407;51.828;-2.298;2022-12-18T08:34:31;21.90;;;13.00;;
34896;SDS011;43407;51.828;-2.298;2022-12-18T08:36:57;17.10;;;11.73;;
34896;SDS011;43407;51.828;-2.298;2022-12-18T08:39:22;17.70;;;10.80;;
34896;SDS011;43407;51.828;-2.298;2022-12-18T08:41:48;14.35;;;9.77;;
34896;SDS011;43407;51.828;-2.298;2022-12-18T08:44:33;14.45;;;9.40;;
34896;SDS011;43407;51.828;-2.298;2022-12-18T08:47:05;17.33;;;10.15;;
34896;SDS011;43407;51.828;-2.298;2022-12-18T08:49:31;13.30;;;8.57;;
34896;SDS011;43407;51.828;-2.298;2022-12-18T08:51:57;14.40;;;9.13;;
34896;SDS011;43407;51.828;-2.298;2022-12-18T08:54:23;12.95;;;8.45;;
34896;SDS011;43407;51.828;-2.298;2022-12-18T08:56:49;14.48;;;8.95;;
34896;SDS011;43407;51.828;-2.298;2022-12-18T08:59:16;18.73;;;9.50;;
34896;SDS011;43407;51.828;-2.298;2022-12-18T09:01:41;17.27;;;11.70;;
34896;SDS011;43407;51.828;-2.298;2022-12-18T09:04:08;17.27;;;10.65;;
34896;SDS011;43407;51.828;-2.298;2022-12-18T09:06:34;20.00;;;12.45;;
34896;SDS011;43407;51.828;-2.298;2022-12-18T09:09:00;18.83;;;11.65;;
34896;SDS011;43407;51.828;-2.298;2022-12-18T09:11:26;21.52;;;11.65;;
34896;SDS011;43407;51.828;-2.298;2022-12-18T09:13:53;16.45;;;11.40;;
34896;SDS011;43407;51.828;-2.298;2022-12-18T09:16:19;20.02;;;11.65;;
34896;SDS011;43407;51.828;-2.298;2022-12-18T09:18:45;16.65;;;11.80;;
34896;SDS011;43407;51.828;-2.298;2022-12-18T09:21:15;18.27;;;11.98;;
34896;SDS011;43407;51.828;-2.298;2022-12-18T09:23:42;17.42;;;11.95;;
34896;SDS011;43407;51.828;-2.298;2022-12-18T09:26:08;18.38;;;11.32;;
34896;SDS011;43407;51.828;-2.298;2022-12-18T09:28:34;17.92;;;11.57;;
34896;SDS011;43407;51.828;-2.298;2022-12-18T09:31:03;20.17;;;11.05;;
34896;SDS011;43407;51.828;-2.298;2022-12-18T09:33:30;16.90;;;10.57;;
34896;SDS011;43407;51.828;-2.298;2022-12-18T09:35:55;16.30;;;11.07;;
34896;SDS011;43407;51.828;-2.298;2022-12-18T09:38:21;21.63;;;11.50;;
34896;SDS011;43407;51.828;-2.298;2022-12-18T09:40:49;21.48;;;13.25;;
34896;SDS011;43407;51.828;-2.298;2022-12-18T09:43:18;16.83;;;11.57;;
34896;SDS011;43407;51.828;-2.298;2022-12-18T09:45:47;19.60;;;10.45;;
34896;SDS011;43407;51.828;-2.298;2022-12-18T09:48:21;19.73;;;11.65;;
34896;SDS011;43407;51.828;-2.298;2022-12-18T09:50:50;18.02;;;12.95;;
34896;SDS011;43407;51.828;-2.298;2022-12-18T09:53:17;16.05;;;10.70;;
34896;SDS011;43407;51.828;-2.298;2022-12-18T09:55:45;17.80;;;10.82;;
34896;SDS011;43407;51.828;-2.298;2022-12-18T09:58:26;18.42;;;12.23;;
34896;SDS011;43407;51.828;-2.298;2022-12-18T10:00:55;17.23;;;11.10;;
34896;SDS011;43407;51.828;-2.298;2022-12-18T10:03:20;16.02;;;11.35;;
34896;SDS011;43407;51.828;-2.298;2022-12-18T10:11:21;16.38;;;10.38;;
34896;SDS011;43407;51.828;-2.298;2022-12-18T10:13:55;17.35;;;10.85;;
34896;SDS011;43407;51.828;-2.298;2022-12-18T10:29:51;17.40;;;11.48;;
34896;SDS011;43407;51.828;-2.298;2022-12-18T10:32:21;18.92;;;11.90;;
34896;SDS011;43407;51.828;-2.298;2022-12-18T10:34:48;18.60;;;11.88;;
34896;SDS011;43407;51.828;-2.298;2022-12-18T10:37:16;20.33;;;12.35;;
34896;SDS011;43407;51.828;-2.298;2022-12-18T10:39:43;16.15;;;11.77;;
34896;SDS011;43407;51.828;-2.298;2022-12-18T10:42:19;17.63;;;12.00;;
34896;SDS011;43407;51.828;-2.298;2022-12-18T10:44:44;26.83;;;13.05;;
34896;SDS011;43407;51.828;-2.298;2022-12-18T10:47:19;20.92;;;12.95;;
34896;SDS011;43407;51.828;-2.298;2022-12-18T10:49:49;18.15;;;12.10;;
34896;SDS011;43407;51.828;-2.298;2022-12-18T10:54:46;19.45;;;12.38;;
34896;SDS011;43407;51.828;-2.298;2022-12-18T10:57:33;21.63;;;12.35;;
34896;SDS011;43407;51.828;-2.298;2022-12-18T11:02:46;18.17;;;12.50;;
34896;SDS011;43407;51.828;-2.298;2022-12-18T11:05:28;24.20;;;12.57;;
34896;SDS011;43407;51.828;-2.298;2022-12-18T11:07:56;15.57;;;11.50;;
34896;SDS011;43407;51.828;-2.298;2022-12-18T11:10:32;16.45;;;10.85;;
34896;SDS011;43407;51.828;-2.298;2022-12-18T11:13:18;16.77;;;11.32;;
34896;SDS011;43407;51.828;-2.298;2022-12-18T11:15:49;17.83;;;11.98;;
34896;SDS011;43407;51.828;-2.298;2022-12-18T11:18:34;21.48;;;13.65;;
34896;SDS011;43407;51.828;-2.298;2022-12-18T11:23:35;18.38;;;13.10;;
34896;SDS011;43407;51.828;-2.298;2022-12-18T11:26:02;18.85;;;13.95;;
34896;SDS011;43407;51.828;-2.298;2022-12-18T11:28:51;19.35;;;12.75;;
34896;SDS011;43407;51.828;-2.298;2022-12-18T11:31:26;19.50;;;12.57;;
34896;SDS011;43407;51.828;-2.298;2022-12-18T11:33:58;23.55;;;12.82;;
34896;SDS011;43407;51.828;-2.298;2022-12-18T11:36:25;21.42;;;13.40;;
34896;SDS011;43407;51.828;-2.298;2022-12-18T11:38:54;20.17;;;12.13;;
34896;SDS011;43407;51.828;-2.298;2022-12-18T11:43:58;24.05;;;14.18;;
34896;SDS011;43407;51.828;-2.298;2022-12-18T11:49:24;20.83;;;14.43;;
34896;SDS011;43407;51.828;-2.298;2022-12-18T11:54:23;21.10;;;15.05;;
34896;SDS011;43407;51.828;-2.298;2022-12-18T11:56:51;23.00;;;14.70;;
34896;SDS011;43407;51.828;-2.298;2022-12-18T11:59:36;24.98;;;14.68;;
34896;SDS011;43407;51.828;-2.298;2022-12-18T12:02:19;22.38;;;14.52;;
34896;SDS011;43407;51.828;-2.298;2022-12-18T12:04:59;21.80;;;14.77;;
34896;SDS011;43407;51.828;-2.298;2022-12-18T12:07:36;21.38;;;15.05;;
34896;SDS011;43407;51.828;-2.298;2022-12-18T12:19:27;22.17;;;15.40;;
34896;SDS011;43407;51.828;-2.298;2022-12-18T12:21:40;22.25;;;14.95;;
34896;SDS011;43407;51.828;-2.298;2022-12-18T12:24:27;23.40;;;14.43;;
34896;SDS011;43407;51.828;-2.298;2022-12-18T12:34:46;16.90;;;13.60;;
34896;SDS011;43407;51.828;-2.298;2022-12-18T12:40:10;15.70;;;11.95;;
34896;SDS011;43407;51.828;-2.298;2022-12-18T12:42:38;18.80;;;12.00;;
34896;SDS011;43407;51.828;-2.298;2022-12-18T12:45:27;17.38;;;12.93;;
34896;SDS011;43407;51.828;-2.298;2022-12-18T12:48:01;17.30;;;12.35;;
34896;SDS011;43407;51.828;-2.298;2022-12-18T12:50:27;16.85;;;11.25;;
34896;SDS011;43407;51.828;-2.298;2022-12-18T12:52:55;16.77;;;10.20;;
34896;SDS011;43407;51.828;-2.298;2022-12-18T12:55:22;13.45;;;9.98;;
34896;SDS011;43407;51.828;-2.298;2022-12-18T13:00:21;10.73;;;8.23;;
34896;SDS011;43407;51.828;-2.298;2022-12-18T13:07:53;11.90;;;8.65;;
34896;SDS011;43407;51.828;-2.298;2022-12-18T13:10:31;15.43;;;11.93;;
34896;SDS011;43407;51.828;-2.298;2022-12-18T13:13:00;16.08;;;10.98;;
34896;SDS011;43407;51.828;-2.298;2022-12-18T13:20:36;8.80;;;7.55;;
34896;SDS011;43407;51.828;-2.298;2022-12-18T13:25:58;10.25;;;8.20;;
34896;SDS011;43407;51.828;-2.298;2022-12-18T13:31:01;8.93;;;6.88;;
34896;SDS011;43407;51.828;-2.298;2022-12-18T13:36:16;10.40;;;7.15;;
34896;SDS011;43407;51.828;-2.298;2022-12-18T13:46:49;6.40;;;5.25;;
34896;SDS011;43407;51.828;-2.298;2022-12-18T13:49:21;7.28;;;5.32;;
34896;SDS011;43407;51.828;-2.298;2022-12-18T13:51:50;7.07;;;5.32;;
34896;SDS011;43407;51.828;-2.298;2022-12-18T13:56:58;5.18;;;4.55;;
34896;SDS011;43407;51.828;-2.298;2022-12-18T13:59:34;6.72;;;5.53;;
34896;SDS011;43407;51.828;-2.298;2022-12-18T14:02:17;4.07;;;3.70;;
34896;SDS011;43407;51.828;-2.298;2022-12-18T14:04:46;3.65;;;3.25;;
34896;SDS011;43407;51.828;-2.298;2022-12-18T14:07:13;8.13;;;6.10;;
34896;SDS011;43407;51.828;-2.298;2022-12-18T14:09:45;8.07;;;5.07;;
34896;SDS011;43407;51.828;-2.298;2022-12-18T14:12:18;4.40;;;3.90;;
34896;SDS011;43407;51.828;-2.298;2022-12-18T14:15:17;5.68;;;4.22;;
34896;SDS011;43407;51.828;-2.298;2022-12-18T14:20:22;3.60;;;3.30;;
34896;SDS011;43407;51.828;-2.298;2022-12-18T14:22:57;4.75;;;3.10;;
34896;SDS011;43407;51.828;-2.298;2022-12-18T14:25:25;4.03;;;3.63;;
34896;SDS011;43407;51.828;-2.298;2022-12-18T14:33:18;2.90;;;2.70;;
34896;SDS011;43407;51.828;-2.298;2022-12-18T14:36:02;6.65;;;2.22;;
34896;SDS011;43407;51.828;-2.298;2022-12-18T14:38:30;3.33;;;3.03;;
34896;SDS011;43407;51.828;-2.298;2022-12-18T14:40:56;4.88;;;2.60;;
34896;SDS011;43407;51.828;-2.298;2022-12-18T14:43:26;3.72;;;3.35;;
34896;SDS011;43407;51.828;-2.298;2022-12-18T14:45:53;2.45;;;2.20;;
34896;SDS011;43407;51.828;-2.298;2022-12-18T14:48:38;3.35;;;3.05;;
34896;SDS011;43407;51.828;-2.298;2022-12-18T14:51:14;3.40;;;3.10;;
34896;SDS011;43407;51.828;-2.298;2022-12-18T14:53:45;3.75;;;3.30;;
34896;SDS011;43407;51.828;-2.298;2022-12-18T14:58:43;2.63;;;2.00;;
34896;SDS011;43407;51.828;-2.298;2022-12-18T15:01:19;2.37;;;2.17;;
34896;SDS011;43407;51.828;-2.298;2022-12-18T15:03:46;3.55;;;2.50;;
34896;SDS011;43407;51.828;-2.298;2022-12-18T15:06:21;3.10;;;2.80;;
34896;SDS011;43407;51.828;-2.298;2022-12-18T15:08:51;2.75;;;2.55;;
34896;SDS011;43407;51.828;-2.298;2022-12-18T15:11:32;2.22;;;2.00;;
34896;SDS011;43407;51.828;-2.298;2022-12-18T15:16:58;1.83;;;1.70;;
34896;SDS011;43407;51.828;-2.298;2022-12-18T15:21:59;2.72;;;1.80;;
34896;SDS011;43407;51.828;-2.298;2022-12-18T15:24:26;1.60;;;1.50;;
34896;SDS011;43407;51.828;-2.298;2022-12-18T15:26:52;1.38;;;1.27;;
34896;SDS011;43407;51.828;-2.298;2022-12-18T15:29:19;1.80;;;1.70;;
34896;SDS011;43407;51.828;-2.298;2022-12-18T15:31:57;2.85;;;2.65;;
34896;SDS011;43407;51.828;-2.298;2022-12-18T15:34:24;3.88;;;2.45;;
34896;SDS011;43407;51.828;-2.298;2022-12-18T15:36:51;2.00;;;1.88;;
34896;SDS011;43407;51.828;-2.298;2022-12-18T15:39:16;3.35;;;2.70;;
34896;SDS011;43407;51.828;-2.298;2022-12-18T15:41:42;3.60;;;2.40;;
34896;SDS011;43407;51.828;-2.298;2022-12-18T15:44:27;3.10;;;2.80;;
34896;SDS011;43407;51.828;-2.298;2022-12-18T15:46:53;2.08;;;1.90;;
34896;SDS011;43407;51.828;-2.298;2022-12-18T15:49:18;3.60;;;3.30;;
34896;SDS011;43407;51.828;-2.298;2022-12-18T15:51:44;2.00;;;1.90;;
34896;SDS011;43407;51.828;-2.298;2022-12-18T15:54:11;1.70;;;1.60;;
34896;SDS011;43407;51.828;-2.298;2022-12-18T15:56:39;1.70;;;1.60;;
34896;SDS011;43407;51.828;-2.298;2022-12-18T15:59:24;2.80;;;1.60;;
34896;SDS011;43407;51.828;-2.298;2022-12-18T16:01:50;1.40;;;1.30;;
34896;SDS011;43407;51.828;-2.298;2022-12-18T16:04:18;1.83;;;1.63;;
34896;SDS011;43407;51.828;-2.298;2022-12-18T16:06:45;1.17;;;1.10;;
34896;SDS011;43407;51.828;-2.298;2022-12-18T16:09:11;1.60;;;1.50;;
34896;SDS011;43407;51.828;-2.298;2022-12-18T16:11:37;1.77;;;1.27;;
34896;SDS011;43407;51.828;-2.298;2022-12-18T16:14:05;1.70;;;1.40;;
34896;SDS011;43407;51.828;-2.298;2022-12-18T16:16:31;1.20;;;1.10;;
34896;SDS011;43407;51.828;-2.298;2022-12-18T16:18:57;1.08;;;1.02;;
34896;SDS011;43407;51.828;-2.298;2022-12-18T16:21:23;1.90;;;1.63;;
34896;SDS011;43407;51.828;-2.298;2022-12-18T16:23:48;1.40;;;1.30;;
34896;SDS011;43407;51.828;-2.298;2022-12-18T16:26:13;1.63;;;1.30;;
34896;SDS011;43407;51.828;-2.298;2022-12-18T16:28:39;1.50;;;1.40;;
34896;SDS011;43407;51.828;-2.298;2022-12-18T16:31:04;1.45;;;1.35;;
34896;SDS011;43407;51.828;-2.298;2022-12-18T16:33:30;1.50;;;1.40;;
34896;SDS011;43407;51.828;-2.298;2022-12-18T16:35:56;1.83;;;1.45;;
34896;SDS011;43407;51.828;-2.298;2022-12-18T16:38:21;2.00;;;1.60;;
34896;SDS011;43407;51.828;-2.298;2022-12-18T16:40:47;1.40;;;1.30;;
34896;SDS011;43407;51.828;-2.298;2022-12-18T16:43:30;1.65;;;1.55;;